sensor_id;sensor_type;location;lat;lon;timestamp;P1;durP1;ratioP1;P2;durP2;ratioP2
55136;SDS011;41032;47.818;-3.732;2022-12-05T00:01:24;5.38;;;4.22;;
55136;SDS011;41032;47.818;-3.732;2022-12-05T00:03:53;6.22;;;3.88;;
55136;SDS011;41032;47.818;-3.732;2022-12-05T00:06:24;4.30;;;3.47;;
55136;SDS011;41032;47.818;-3.732;2022-12-05T00:08:54;4.97;;;3.65;;
55136;SDS011;41032;47.818;-3.732;2022-12-05T00:11:23;4.85;;;3.72;;
55136;SDS011;41032;47.818;-3.732;2022-12-05T00:13:54;5.43;;;3.75;;
55136;SDS011;41032;47.818;-3.732;2022-12-05T00:16:23;4.45;;;3.35;;
55136;SDS011;41032;47.818;-3.732;2022-12-05T00:18:52;4.40;;;3.17;;
55136;SDS011;41032;47.818;-3.732;2022-12-05T00:21:22;4.60;;;3.65;;
55136;SDS011;41032;47.818;-3.732;2022-12-05T00:23:53;5.25;;;3.65;;
55136;SDS011;41032;47.818;-3.732;2022-12-05T00:26:22;4.25;;;3.17;;
55136;SDS011;41032;47.818;-3.732;2022-12-05T00:28:51;4.80;;;3.67;;
55136;SDS011;41032;47.818;-3.732;2022-12-05T00:31:21;6.55;;;4.07;;
55136;SDS011;41032;47.818;-3.732;2022-12-05T00:33:50;4.13;;;3.47;;
55136;SDS011;41032;47.818;-3.732;2022-12-05T00:36:20;4.72;;;3.60;;
55136;SDS011;41032;47.818;-3.732;2022-12-05T00:38:51;5.20;;;3.85;;
55136;SDS011;41032;47.818;-3.732;2022-12-05T00:41:21;4.40;;;3.60;;
55136;SDS011;41032;47.818;-3.732;2022-12-05T00:43:51;4.05;;;3.25;;
55136;SDS011;41032;47.818;-3.732;2022-12-05T00:46:21;4.63;;;3.60;;
55136;SDS011;41032;47.818;-3.732;2022-12-05T00:48:52;5.78;;;4.22;;
55136;SDS011;41032;47.818;-3.732;2022-12-05T00:51:23;5.18;;;3.65;;
55136;SDS011;41032;47.818;-3.732;2022-12-05T00:53:54;5.10;;;3.17;;
55136;SDS011;41032;47.818;-3.732;2022-12-05T00:56:25;4.53;;;3.55;;
55136;SDS011;41032;47.818;-3.732;2022-12-05T00:58:54;4.47;;;3.63;;
55136;SDS011;41032;47.818;-3.732;2022-12-05T01:01:24;7.03;;;3.55;;
55136;SDS011;41032;47.818;-3.732;2022-12-05T01:03:55;5.50;;;3.60;;
55136;SDS011;41032;47.818;-3.732;2022-12-05T01:06:25;6.05;;;4.05;;
55136;SDS011;41032;47.818;-3.732;2022-12-05T01:08:54;4.57;;;3.50;;
55136;SDS011;41032;47.818;-3.732;2022-12-05T01:11:23;4.40;;;3.53;;
55136;SDS011;41032;47.818;-3.732;2022-12-05T01:13:53;5.00;;;3.80;;
55136;SDS011;41032;47.818;-3.732;2022-12-05T01:16:21;4.43;;;3.47;;
55136;SDS011;41032;47.818;-3.732;2022-12-05T01:18:52;4.78;;;4.00;;
55136;SDS011;41032;47.818;-3.732;2022-12-05T01:21:21;5.93;;;4.13;;
55136;SDS011;41032;47.818;-3.732;2022-12-05T01:23:49;5.32;;;4.00;;
55136;SDS011;41032;47.818;-3.732;2022-12-05T01:26:18;5.88;;;4.03;;
55136;SDS011;41032;47.818;-3.732;2022-12-05T01:28:47;5.10;;;3.90;;
55136;SDS011;41032;47.818;-3.732;2022-12-05T01:31:27;4.95;;;3.78;;
55136;SDS011;41032;47.818;-3.732;2022-12-05T01:33:58;5.35;;;4.13;;
55136;SDS011;41032;47.818;-3.732;2022-12-05T01:36:27;5.80;;;4.40;;
55136;SDS011;41032;47.818;-3.732;2022-12-05T01:38:56;4.35;;;3.53;;
55136;SDS011;41032;47.818;-3.732;2022-12-05T01:41:26;5.80;;;4.15;;
55136;SDS011;41032;47.818;-3.732;2022-12-05T01:44:02;5.43;;;4.28;;
55136;SDS011;41032;47.818;-3.732;2022-12-05T01:46:32;8.05;;;4.22;;
55136;SDS011;41032;47.818;-3.732;2022-12-05T01:49:03;6.45;;;4.50;;
55136;SDS011;41032;47.818;-3.732;2022-12-05T01:51:38;5.85;;;4.03;;
55136;SDS011;41032;47.818;-3.732;2022-12-05T01:54:09;7.40;;;4.13;;
55136;SDS011;41032;47.818;-3.732;2022-12-05T01:56:38;6.10;;;4.35;;
55136;SDS011;41032;47.818;-3.732;2022-12-05T01:59:08;5.13;;;3.88;;
55136;SDS011;41032;47.818;-3.732;2022-12-05T02:01:37;5.60;;;4.35;;
55136;SDS011;41032;47.818;-3.732;2022-12-05T02:04:06;4.45;;;3.70;;
55136;SDS011;41032;47.818;-3.732;2022-12-05T02:06:36;5.10;;;4.00;;
55136;SDS011;41032;47.818;-3.732;2022-12-05T02:09:04;6.18;;;4.45;;
55136;SDS011;41032;47.818;-3.732;2022-12-05T02:11:33;5.10;;;3.97;;
55136;SDS011;41032;47.818;-3.732;2022-12-05T02:34:27;5.85;;;4.30;;
55136;SDS011;41032;47.818;-3.732;2022-12-05T02:39:36;4.43;;;3.58;;
55136;SDS011;41032;47.818;-3.732;2022-12-05T02:42:12;3.90;;;3.22;;
55136;SDS011;41032;47.818;-3.732;2022-12-05T02:44:46;6.57;;;4.53;;
55136;SDS011;41032;47.818;-3.732;2022-12-05T02:47:17;5.90;;;3.92;;
55136;SDS011;41032;47.818;-3.732;2022-12-05T02:49:48;4.97;;;3.58;;
55136;SDS011;41032;47.818;-3.732;2022-12-05T02:52:18;4.80;;;4.03;;
55136;SDS011;41032;47.818;-3.732;2022-12-05T02:54:49;6.38;;;4.43;;
55136;SDS011;41032;47.818;-3.732;2022-12-05T02:57:19;5.72;;;3.95;;
55136;SDS011;41032;47.818;-3.732;2022-12-05T02:59:49;6.53;;;4.25;;
55136;SDS011;41032;47.818;-3.732;2022-12-05T03:02:29;4.68;;;3.92;;
55136;SDS011;41032;47.818;-3.732;2022-12-05T03:05:03;4.78;;;4.03;;
55136;SDS011;41032;47.818;-3.732;2022-12-05T03:07:37;5.00;;;3.78;;
55136;SDS011;41032;47.818;-3.732;2022-12-05T03:10:05;5.47;;;3.83;;
55136;SDS011;41032;47.818;-3.732;2022-12-05T03:12:36;6.35;;;4.40;;
55136;SDS011;41032;47.818;-3.732;2022-12-05T03:15:12;5.47;;;3.95;;
55136;SDS011;41032;47.818;-3.732;2022-12-05T03:18:05;5.18;;;4.10;;
55136;SDS011;41032;47.818;-3.732;2022-12-05T03:20:36;4.15;;;3.35;;
55136;SDS011;41032;47.818;-3.732;2022-12-05T03:23:11;4.40;;;3.53;;
55136;SDS011;41032;47.818;-3.732;2022-12-05T03:28:23;5.38;;;4.10;;
55136;SDS011;41032;47.818;-3.732;2022-12-05T03:30:59;4.57;;;3.67;;
55136;SDS011;41032;47.818;-3.732;2022-12-05T03:33:31;6.22;;;4.25;;
55136;SDS011;41032;47.818;-3.732;2022-12-05T03:36:05;4.97;;;4.13;;
55136;SDS011;41032;47.818;-3.732;2022-12-05T03:38:42;3.83;;;3.28;;
55136;SDS011;41032;47.818;-3.732;2022-12-05T03:43:54;5.18;;;3.90;;
55136;SDS011;41032;47.818;-3.732;2022-12-05T03:46:30;5.65;;;4.60;;
55136;SDS011;41032;47.818;-3.732;2022-12-05T03:49:14;4.70;;;3.75;;
55136;SDS011;41032;47.818;-3.732;2022-12-05T03:51:52;4.68;;;3.78;;
55136;SDS011;41032;47.818;-3.732;2022-12-05T03:55:08;5.57;;;4.32;;
55136;SDS011;41032;47.818;-3.732;2022-12-05T03:57:16;6.25;;;4.70;;
55136;SDS011;41032;47.818;-3.732;2022-12-05T04:00:13;5.53;;;4.18;;
55136;SDS011;41032;47.818;-3.732;2022-12-05T04:02:44;5.90;;;4.18;;
55136;SDS011;41032;47.818;-3.732;2022-12-05T04:05:19;5.25;;;4.25;;
55136;SDS011;41032;47.818;-3.732;2022-12-05T04:07:59;5.72;;;4.40;;
55136;SDS011;41032;47.818;-3.732;2022-12-05T04:10:30;5.20;;;3.78;;
55136;SDS011;41032;47.818;-3.732;2022-12-05T04:13:15;6.22;;;4.47;;
55136;SDS011;41032;47.818;-3.732;2022-12-05T04:15:47;6.78;;;4.82;;
55136;SDS011;41032;47.818;-3.732;2022-12-05T04:18:36;7.45;;;4.60;;
55136;SDS011;41032;47.818;-3.732;2022-12-05T04:21:07;5.63;;;4.65;;
55136;SDS011;41032;47.818;-3.732;2022-12-05T04:23:56;6.25;;;4.38;;
55136;SDS011;41032;47.818;-3.732;2022-12-05T04:26:45;5.28;;;3.78;;
55136;SDS011;41032;47.818;-3.732;2022-12-05T04:29:16;6.60;;;4.97;;
55136;SDS011;41032;47.818;-3.732;2022-12-05T04:31:51;5.47;;;4.13;;
55136;SDS011;41032;47.818;-3.732;2022-12-05T04:34:24;5.50;;;4.18;;
55136;SDS011;41032;47.818;-3.732;2022-12-05T04:36:55;5.75;;;4.40;;
55136;SDS011;41032;47.818;-3.732;2022-12-05T04:39:33;5.95;;;4.63;;
55136;SDS011;41032;47.818;-3.732;2022-12-05T04:42:12;7.32;;;4.70;;
55136;SDS011;41032;47.818;-3.732;2022-12-05T04:44:44;6.13;;;4.43;;
55136;SDS011;41032;47.818;-3.732;2022-12-05T04:47:16;6.32;;;4.53;;
55136;SDS011;41032;47.818;-3.732;2022-12-05T04:49:47;6.05;;;4.55;;
55136;SDS011;41032;47.818;-3.732;2022-12-05T04:52:16;6.53;;;4.85;;
55136;SDS011;41032;47.818;-3.732;2022-12-05T04:54:45;6.07;;;4.65;;
55136;SDS011;41032;47.818;-3.732;2022-12-05T04:57:39;6.03;;;4.75;;
55136;SDS011;41032;47.818;-3.732;2022-12-05T05:00:23;5.65;;;4.45;;
55136;SDS011;41032;47.818;-3.732;2022-12-05T05:02:54;5.20;;;4.57;;
55136;SDS011;41032;47.818;-3.732;2022-12-05T05:05:27;5.18;;;4.22;;
55136;SDS011;41032;47.818;-3.732;2022-12-05T05:07:56;7.07;;;5.18;;
55136;SDS011;41032;47.818;-3.732;2022-12-05T05:10:27;7.88;;;4.88;;
55136;SDS011;41032;47.818;-3.732;2022-12-05T05:12:59;8.50;;;4.75;;
55136;SDS011;41032;47.818;-3.732;2022-12-05T05:15:28;5.60;;;4.57;;
55136;SDS011;41032;47.818;-3.732;2022-12-05T05:17:56;8.25;;;5.07;;
55136;SDS011;41032;47.818;-3.732;2022-12-05T05:20:24;6.20;;;4.60;;
55136;SDS011;41032;47.818;-3.732;2022-12-05T05:22:53;5.93;;;5.10;;
55136;SDS011;41032;47.818;-3.732;2022-12-05T05:25:23;6.60;;;5.05;;
55136;SDS011;41032;47.818;-3.732;2022-12-05T05:27:52;6.97;;;5.07;;
55136;SDS011;41032;47.818;-3.732;2022-12-05T05:30:21;6.22;;;4.55;;
55136;SDS011;41032;47.818;-3.732;2022-12-05T05:32:50;6.43;;;4.95;;
55136;SDS011;41032;47.818;-3.732;2022-12-05T05:35:18;7.75;;;5.70;;
55136;SDS011;41032;47.818;-3.732;2022-12-05T05:37:47;6.97;;;5.47;;
55136;SDS011;41032;47.818;-3.732;2022-12-05T05:40:15;6.80;;;4.72;;
55136;SDS011;41032;47.818;-3.732;2022-12-05T05:42:46;6.65;;;4.60;;
55136;SDS011;41032;47.818;-3.732;2022-12-05T05:45:15;6.78;;;4.85;;
55136;SDS011;41032;47.818;-3.732;2022-12-05T05:47:44;6.13;;;4.50;;
55136;SDS011;41032;47.818;-3.732;2022-12-05T05:50:15;6.22;;;4.68;;
55136;SDS011;41032;47.818;-3.732;2022-12-05T05:52:43;6.53;;;5.07;;
55136;SDS011;41032;47.818;-3.732;2022-12-05T05:55:12;6.13;;;5.30;;
55136;SDS011;41032;47.818;-3.732;2022-12-05T05:57:40;6.88;;;4.63;;
55136;SDS011;41032;47.818;-3.732;2022-12-05T06:00:09;8.27;;;5.03;;
55136;SDS011;41032;47.818;-3.732;2022-12-05T06:02:38;5.68;;;4.50;;
55136;SDS011;41032;47.818;-3.732;2022-12-05T06:05:06;5.03;;;4.15;;
55136;SDS011;41032;47.818;-3.732;2022-12-05T06:07:34;4.78;;;3.90;;
55136;SDS011;41032;47.818;-3.732;2022-12-05T06:10:02;6.55;;;4.63;;
55136;SDS011;41032;47.818;-3.732;2022-12-05T06:12:30;6.00;;;4.60;;
55136;SDS011;41032;47.818;-3.732;2022-12-05T06:14:59;6.20;;;4.15;;
55136;SDS011;41032;47.818;-3.732;2022-12-05T06:17:27;6.07;;;4.65;;
55136;SDS011;41032;47.818;-3.732;2022-12-05T06:19:57;6.18;;;4.50;;
55136;SDS011;41032;47.818;-3.732;2022-12-05T06:22:25;5.63;;;4.25;;
55136;SDS011;41032;47.818;-3.732;2022-12-05T06:24:53;6.70;;;4.60;;
55136;SDS011;41032;47.818;-3.732;2022-12-05T06:27:22;5.70;;;4.32;;
55136;SDS011;41032;47.818;-3.732;2022-12-05T06:29:50;8.70;;;4.38;;
55136;SDS011;41032;47.818;-3.732;2022-12-05T06:32:18;9.85;;;4.55;;
55136;SDS011;41032;47.818;-3.732;2022-12-05T06:34:47;14.55;;;5.05;;
55136;SDS011;41032;47.818;-3.732;2022-12-05T06:37:15;7.13;;;4.30;;
55136;SDS011;41032;47.818;-3.732;2022-12-05T06:39:43;15.98;;;5.35;;
55136;SDS011;41032;47.818;-3.732;2022-12-05T06:42:11;9.57;;;5.22;;
55136;SDS011;41032;47.818;-3.732;2022-12-05T06:44:40;24.85;;;16.13;;
55136;SDS011;41032;47.818;-3.732;2022-12-05T06:47:08;22.08;;;11.48;;
55136;SDS011;41032;47.818;-3.732;2022-12-05T06:49:36;16.75;;;10.02;;
55136;SDS011;41032;47.818;-3.732;2022-12-05T06:52:05;19.08;;;8.95;;
55136;SDS011;41032;47.818;-3.732;2022-12-05T06:54:33;16.08;;;9.35;;
55136;SDS011;41032;47.818;-3.732;2022-12-05T06:57:02;11.70;;;8.10;;
55136;SDS011;41032;47.818;-3.732;2022-12-05T06:59:30;9.80;;;7.07;;
55136;SDS011;41032;47.818;-3.732;2022-12-05T07:01:59;14.50;;;8.07;;
55136;SDS011;41032;47.818;-3.732;2022-12-05T07:04:27;13.68;;;6.80;;
55136;SDS011;41032;47.818;-3.732;2022-12-05T07:06:56;12.15;;;6.55;;
55136;SDS011;41032;47.818;-3.732;2022-12-05T07:09:24;9.98;;;7.32;;
55136;SDS011;41032;47.818;-3.732;2022-12-05T07:12:10;23.30;;;16.90;;
55136;SDS011;41032;47.818;-3.732;2022-12-05T07:14:39;37.63;;;27.42;;
55136;SDS011;41032;47.818;-3.732;2022-12-05T07:17:08;35.45;;;24.48;;
55136;SDS011;41032;47.818;-3.732;2022-12-05T07:19:37;35.83;;;25.55;;
55136;SDS011;41032;47.818;-3.732;2022-12-05T07:22:05;30.77;;;22.85;;
55136;SDS011;41032;47.818;-3.732;2022-12-05T07:24:34;26.58;;;21.02;;
55136;SDS011;41032;47.818;-3.732;2022-12-05T07:27:03;30.70;;;18.48;;
55136;SDS011;41032;47.818;-3.732;2022-12-05T07:29:31;25.15;;;17.70;;
55136;SDS011;41032;47.818;-3.732;2022-12-05T07:31:59;31.17;;;22.40;;
55136;SDS011;41032;47.818;-3.732;2022-12-05T07:34:27;35.03;;;24.05;;
55136;SDS011;41032;47.818;-3.732;2022-12-05T07:36:56;31.02;;;21.15;;
55136;SDS011;41032;47.818;-3.732;2022-12-05T07:39:23;25.38;;;19.45;;
55136;SDS011;41032;47.818;-3.732;2022-12-05T07:41:50;29.02;;;18.77;;
55136;SDS011;41032;47.818;-3.732;2022-12-05T07:44:17;23.60;;;18.95;;
55136;SDS011;41032;47.818;-3.732;2022-12-05T07:46:44;21.95;;;17.77;;
55136;SDS011;41032;47.818;-3.732;2022-12-05T07:49:12;23.13;;;18.35;;
55136;SDS011;41032;47.818;-3.732;2022-12-05T07:51:40;33.13;;;20.05;;
55136;SDS011;41032;47.818;-3.732;2022-12-05T07:54:08;31.35;;;19.42;;
55136;SDS011;41032;47.818;-3.732;2022-12-05T07:56:36;21.90;;;17.95;;
55136;SDS011;41032;47.818;-3.732;2022-12-05T07:59:03;28.23;;;17.30;;
55136;SDS011;41032;47.818;-3.732;2022-12-05T08:01:32;18.67;;;15.25;;
55136;SDS011;41032;47.818;-3.732;2022-12-05T08:03:59;21.27;;;15.88;;
55136;SDS011;41032;47.818;-3.732;2022-12-05T08:06:27;21.38;;;14.50;;
55136;SDS011;41032;47.818;-3.732;2022-12-05T08:08:55;18.65;;;14.70;;
55136;SDS011;41032;47.818;-3.732;2022-12-05T08:11:24;19.67;;;13.68;;
55136;SDS011;41032;47.818;-3.732;2022-12-05T08:13:53;18.10;;;13.48;;
55136;SDS011;41032;47.818;-3.732;2022-12-05T08:16:22;17.38;;;13.13;;
55136;SDS011;41032;47.818;-3.732;2022-12-05T08:18:55;17.50;;;12.13;;
55136;SDS011;41032;47.818;-3.732;2022-12-05T08:23:52;15.75;;;11.07;;
55136;SDS011;41032;47.818;-3.732;2022-12-05T08:26:22;16.10;;;11.57;;
55136;SDS011;41032;47.818;-3.732;2022-12-05T08:28:56;15.43;;;11.07;;
55136;SDS011;41032;47.818;-3.732;2022-12-05T08:31:27;12.35;;;9.50;;
55136;SDS011;41032;47.818;-3.732;2022-12-05T08:33:58;11.95;;;9.57;;
55136;SDS011;41032;47.818;-3.732;2022-12-05T08:36:27;11.23;;;8.90;;
55136;SDS011;41032;47.818;-3.732;2022-12-05T08:38:56;13.65;;;9.25;;
55136;SDS011;41032;47.818;-3.732;2022-12-05T08:41:24;14.13;;;9.07;;
55136;SDS011;41032;47.818;-3.732;2022-12-05T08:43:55;12.65;;;8.60;;
55136;SDS011;41032;47.818;-3.732;2022-12-05T08:46:23;11.45;;;8.68;;
55136;SDS011;41032;47.818;-3.732;2022-12-05T08:48:50;14.65;;;8.13;;
55136;SDS011;41032;47.818;-3.732;2022-12-05T08:51:18;9.85;;;7.43;;
55136;SDS011;41032;47.818;-3.732;2022-12-05T08:53:46;12.48;;;7.32;;
55136;SDS011;41032;47.818;-3.732;2022-12-05T08:56:14;11.40;;;7.63;;
55136;SDS011;41032;47.818;-3.732;2022-12-05T08:58:42;9.80;;;7.47;;
55136;SDS011;41032;47.818;-3.732;2022-12-05T09:01:14;11.95;;;6.40;;
55136;SDS011;41032;47.818;-3.732;2022-12-05T09:03:44;10.10;;;7.28;;
55136;SDS011;41032;47.818;-3.732;2022-12-05T09:06:14;12.13;;;9.45;;
55136;SDS011;41032;47.818;-3.732;2022-12-05T09:08:43;11.93;;;9.18;;
55136;SDS011;41032;47.818;-3.732;2022-12-05T09:11:12;10.88;;;8.35;;
55136;SDS011;41032;47.818;-3.732;2022-12-05T09:13:42;9.55;;;7.32;;
55136;SDS011;41032;47.818;-3.732;2022-12-05T09:16:11;13.45;;;7.88;;
55136;SDS011;41032;47.818;-3.732;2022-12-05T09:18:40;9.38;;;7.40;;
55136;SDS011;41032;47.818;-3.732;2022-12-05T09:21:10;21.80;;;6.55;;
55136;SDS011;41032;47.818;-3.732;2022-12-05T09:23:40;10.02;;;6.38;;
55136;SDS011;41032;47.818;-3.732;2022-12-05T09:26:09;8.27;;;5.70;;
55136;SDS011;41032;47.818;-3.732;2022-12-05T09:28:40;11.38;;;6.05;;
55136;SDS011;41032;47.818;-3.732;2022-12-05T09:31:11;7.45;;;5.63;;
55136;SDS011;41032;47.818;-3.732;2022-12-05T09:33:40;11.23;;;5.90;;
55136;SDS011;41032;47.818;-3.732;2022-12-05T09:36:10;14.27;;;6.88;;
55136;SDS011;41032;47.818;-3.732;2022-12-05T09:38:40;13.60;;;6.53;;
55136;SDS011;41032;47.818;-3.732;2022-12-05T09:44:06;8.25;;;5.43;;
55136;SDS011;41032;47.818;-3.732;2022-12-05T09:46:42;13.10;;;5.55;;
55136;SDS011;41032;47.818;-3.732;2022-12-05T09:49:24;8.85;;;5.68;;
55136;SDS011;41032;47.818;-3.732;2022-12-05T09:51:53;10.63;;;5.93;;
55136;SDS011;41032;47.818;-3.732;2022-12-05T09:54:23;7.68;;;5.28;;
55136;SDS011;41032;47.818;-3.732;2022-12-05T09:56:51;7.72;;;5.25;;
55136;SDS011;41032;47.818;-3.732;2022-12-05T09:59:19;12.02;;;5.80;;
55136;SDS011;41032;47.818;-3.732;2022-12-05T10:04:44;7.15;;;5.18;;
55136;SDS011;41032;47.818;-3.732;2022-12-05T10:07:36;8.07;;;4.95;;
55136;SDS011;41032;47.818;-3.732;2022-12-05T10:13:08;12.48;;;5.53;;
55136;SDS011;41032;47.818;-3.732;2022-12-05T10:15:51;7.47;;;5.10;;
55136;SDS011;41032;47.818;-3.732;2022-12-05T10:19:06;7.47;;;4.50;;
55136;SDS011;41032;47.818;-3.732;2022-12-05T10:21:13;6.93;;;4.82;;
55136;SDS011;41032;47.818;-3.732;2022-12-05T10:23:55;9.77;;;4.32;;
55136;SDS011;41032;47.818;-3.732;2022-12-05T10:26:31;7.95;;;5.32;;
55136;SDS011;41032;47.818;-3.732;2022-12-05T10:29:11;8.52;;;4.43;;
55136;SDS011;41032;47.818;-3.732;2022-12-05T10:31:48;6.55;;;3.97;;
55136;SDS011;41032;47.818;-3.732;2022-12-05T10:34:20;6.50;;;4.47;;
55136;SDS011;41032;47.818;-3.732;2022-12-05T10:39:42;8.82;;;4.88;;
55136;SDS011;41032;47.818;-3.732;2022-12-05T10:42:54;10.63;;;4.53;;
55136;SDS011;41032;47.818;-3.732;2022-12-05T10:44:58;7.38;;;4.18;;
55136;SDS011;41032;47.818;-3.732;2022-12-05T10:47:30;6.22;;;4.10;;
55136;SDS011;41032;47.818;-3.732;2022-12-05T10:49:59;10.43;;;4.72;;
55136;SDS011;41032;47.818;-3.732;2022-12-05T10:52:30;6.88;;;4.43;;
55136;SDS011;41032;47.818;-3.732;2022-12-05T10:55:03;6.22;;;4.18;;
55136;SDS011;41032;47.818;-3.732;2022-12-05T10:57:32;7.50;;;4.47;;
55136;SDS011;41032;47.818;-3.732;2022-12-05T11:00:20;8.95;;;4.75;;
55136;SDS011;41032;47.818;-3.732;2022-12-05T11:02:48;8.98;;;4.35;;
55136;SDS011;41032;47.818;-3.732;2022-12-05T11:05:16;6.93;;;4.38;;
55136;SDS011;41032;47.818;-3.732;2022-12-05T11:07:53;6.60;;;4.10;;
55136;SDS011;41032;47.818;-3.732;2022-12-05T11:10:42;8.63;;;3.92;;
55136;SDS011;41032;47.818;-3.732;2022-12-05T11:13:13;9.70;;;4.55;;
55136;SDS011;41032;47.818;-3.732;2022-12-05T11:15:44;6.78;;;4.65;;
55136;SDS011;41032;47.818;-3.732;2022-12-05T11:18:17;7.38;;;4.50;;
55136;SDS011;41032;47.818;-3.732;2022-12-05T11:20:53;11.30;;;4.30;;
55136;SDS011;41032;47.818;-3.732;2022-12-05T11:23:23;10.57;;;3.55;;
55136;SDS011;41032;47.818;-3.732;2022-12-05T11:25:55;13.63;;;4.30;;
55136;SDS011;41032;47.818;-3.732;2022-12-05T11:28:28;10.95;;;4.15;;
55136;SDS011;41032;47.818;-3.732;2022-12-05T11:33:41;7.05;;;4.07;;
55136;SDS011;41032;47.818;-3.732;2022-12-05T11:36:12;8.43;;;4.13;;
55136;SDS011;41032;47.818;-3.732;2022-12-05T11:38:45;9.02;;;3.95;;
55136;SDS011;41032;47.818;-3.732;2022-12-05T11:41:37;6.13;;;3.85;;
55136;SDS011;41032;47.818;-3.732;2022-12-05T12:03:37;10.75;;;5.68;;
55136;SDS011;41032;47.818;-3.732;2022-12-05T12:09:22;9.88;;;5.50;;
55136;SDS011;41032;47.818;-3.732;2022-12-05T12:31:58;10.07;;;5.38;;
55136;SDS011;41032;47.818;-3.732;2022-12-05T12:40:11;10.45;;;4.75;;
55136;SDS011;41032;47.818;-3.732;2022-12-05T12:48:57;14.25;;;5.75;;
55136;SDS011;41032;47.818;-3.732;2022-12-05T12:51:18;8.32;;;4.53;;
55136;SDS011;41032;47.818;-3.732;2022-12-05T12:53:50;7.03;;;4.50;;
55136;SDS011;41032;47.818;-3.732;2022-12-05T13:02:03;8.70;;;4.13;;
55136;SDS011;41032;47.818;-3.732;2022-12-05T13:07:22;8.15;;;5.07;;
55136;SDS011;41032;47.818;-3.732;2022-12-05T13:10:16;7.65;;;4.43;;
55136;SDS011;41032;47.818;-3.732;2022-12-05T13:12:51;6.22;;;4.03;;
55136;SDS011;41032;47.818;-3.732;2022-12-05T13:16:03;9.55;;;5.55;;
55136;SDS011;41032;47.818;-3.732;2022-12-05T13:18:11;7.03;;;4.25;;
55136;SDS011;41032;47.818;-3.732;2022-12-05T13:20:51;22.23;;;16.33;;
55136;SDS011;41032;47.818;-3.732;2022-12-05T13:23:22;21.05;;;15.75;;
55136;SDS011;41032;47.818;-3.732;2022-12-05T13:25:52;16.35;;;12.35;;
55136;SDS011;41032;47.818;-3.732;2022-12-05T13:28:32;15.93;;;12.13;;
55136;SDS011;41032;47.818;-3.732;2022-12-05T13:31:12;15.07;;;10.65;;
55136;SDS011;41032;47.818;-3.732;2022-12-05T13:33:43;11.98;;;9.88;;
55136;SDS011;41032;47.818;-3.732;2022-12-05T13:39:03;11.30;;;8.73;;
55136;SDS011;41032;47.818;-3.732;2022-12-05T13:41:52;14.05;;;8.82;;
55136;SDS011;41032;47.818;-3.732;2022-12-05T13:44:41;11.38;;;7.85;;
55136;SDS011;41032;47.818;-3.732;2022-12-05T13:48:02;9.50;;;7.30;;
55136;SDS011;41032;47.818;-3.732;2022-12-05T13:52:54;9.88;;;7.43;;
55136;SDS011;41032;47.818;-3.732;2022-12-05T13:58:32;9.43;;;6.88;;
55136;SDS011;41032;47.818;-3.732;2022-12-05T14:00:50;8.43;;;6.13;;
55136;SDS011;41032;47.818;-3.732;2022-12-05T14:03:59;11.30;;;6.63;;
55136;SDS011;41032;47.818;-3.732;2022-12-05T14:07:11;8.20;;;6.30;;
55136;SDS011;41032;47.818;-3.732;2022-12-05T14:09:47;9.07;;;5.82;;
55136;SDS011;41032;47.818;-3.732;2022-12-05T14:14:59;7.78;;;5.22;;
55136;SDS011;41032;47.818;-3.732;2022-12-05T14:17:29;6.82;;;4.97;;
55136;SDS011;41032;47.818;-3.732;2022-12-05T14:20:03;5.75;;;4.53;;
55136;SDS011;41032;47.818;-3.732;2022-12-05T14:33:39;7.10;;;4.55;;
55136;SDS011;41032;47.818;-3.732;2022-12-05T14:36:07;6.10;;;4.50;;
55136;SDS011;41032;47.818;-3.732;2022-12-05T14:38:41;6.97;;;4.07;;
55136;SDS011;41032;47.818;-3.732;2022-12-05T14:41:54;6.30;;;4.30;;
55136;SDS011;41032;47.818;-3.732;2022-12-05T14:43:58;5.75;;;4.05;;
55136;SDS011;41032;47.818;-3.732;2022-12-05T14:46:28;7.28;;;4.53;;
55136;SDS011;41032;47.818;-3.732;2022-12-05T14:48:57;6.20;;;3.92;;
55136;SDS011;41032;47.818;-3.732;2022-12-05T14:52:07;5.00;;;3.78;;
55136;SDS011;41032;47.818;-3.732;2022-12-05T14:54:37;6.28;;;4.20;;
55136;SDS011;41032;47.818;-3.732;2022-12-05T14:57:10;9.20;;;4.07;;
55136;SDS011;41032;47.818;-3.732;2022-12-05T14:59:51;4.75;;;3.45;;
55136;SDS011;41032;47.818;-3.732;2022-12-05T15:02:27;4.95;;;3.55;;
55136;SDS011;41032;47.818;-3.732;2022-12-05T15:05:02;4.28;;;2.90;;
55136;SDS011;41032;47.818;-3.732;2022-12-05T15:07:39;13.32;;;9.50;;
55136;SDS011;41032;47.818;-3.732;2022-12-05T15:12:40;34.88;;;24.98;;
55136;SDS011;41032;47.818;-3.732;2022-12-05T15:18:07;26.25;;;20.20;;
55136;SDS011;41032;47.818;-3.732;2022-12-05T15:20:57;23.33;;;17.80;;
55136;SDS011;41032;47.818;-3.732;2022-12-05T15:29:06;17.75;;;13.15;;
55136;SDS011;41032;47.818;-3.732;2022-12-05T15:31:58;15.27;;;11.43;;
55136;SDS011;41032;47.818;-3.732;2022-12-05T15:34:33;13.98;;;10.77;;
55136;SDS011;41032;47.818;-3.732;2022-12-05T15:37:24;12.00;;;9.32;;
55136;SDS011;41032;47.818;-3.732;2022-12-05T15:39:55;13.48;;;9.45;;
55136;SDS011;41032;47.818;-3.732;2022-12-05T15:42:28;14.25;;;9.63;;
55136;SDS011;41032;47.818;-3.732;2022-12-05T15:45:18;11.23;;;8.38;;
55136;SDS011;41032;47.818;-3.732;2022-12-05T15:50:36;15.10;;;10.32;;
55136;SDS011;41032;47.818;-3.732;2022-12-05T15:53:10;12.57;;;9.02;;
55136;SDS011;41032;47.818;-3.732;2022-12-05T15:55:42;11.77;;;8.98;;
55136;SDS011;41032;47.818;-3.732;2022-12-05T15:58:26;12.60;;;8.23;;
55136;SDS011;41032;47.818;-3.732;2022-12-05T16:01:38;10.57;;;7.85;;
55136;SDS011;41032;47.818;-3.732;2022-12-05T16:06:32;8.95;;;6.90;;
55136;SDS011;41032;47.818;-3.732;2022-12-05T16:09:21;8.40;;;6.30;;
55136;SDS011;41032;47.818;-3.732;2022-12-05T16:14:21;7.45;;;5.80;;
55136;SDS011;41032;47.818;-3.732;2022-12-05T16:16:50;9.10;;;6.53;;
55136;SDS011;41032;47.818;-3.732;2022-12-05T16:21:58;11.77;;;5.57;;
55136;SDS011;41032;47.818;-3.732;2022-12-05T16:24:29;6.88;;;4.78;;
55136;SDS011;41032;47.818;-3.732;2022-12-05T16:27:03;7.88;;;5.22;;
55136;SDS011;41032;47.818;-3.732;2022-12-05T16:29:39;10.15;;;6.32;;
55136;SDS011;41032;47.818;-3.732;2022-12-05T16:32:20;9.85;;;6.60;;
55136;SDS011;41032;47.818;-3.732;2022-12-05T16:34:50;11.18;;;5.80;;
55136;SDS011;41032;47.818;-3.732;2022-12-05T16:37:22;9.90;;;6.65;;
55136;SDS011;41032;47.818;-3.732;2022-12-05T16:39:52;10.38;;;5.70;;
55136;SDS011;41032;47.818;-3.732;2022-12-05T16:42:25;9.70;;;5.80;;
55136;SDS011;41032;47.818;-3.732;2022-12-05T16:44:55;14.00;;;5.97;;
55136;SDS011;41032;47.818;-3.732;2022-12-05T16:50:23;12.02;;;7.55;;
55136;SDS011;41032;47.818;-3.732;2022-12-05T16:53:41;8.68;;;6.10;;
55136;SDS011;41032;47.818;-3.732;2022-12-05T16:55:45;12.57;;;6.13;;
55136;SDS011;41032;47.818;-3.732;2022-12-05T16:58:16;11.30;;;5.93;;
55136;SDS011;41032;47.818;-3.732;2022-12-05T17:00:48;8.52;;;5.50;;
55136;SDS011;41032;47.818;-3.732;2022-12-05T17:03:17;10.18;;;5.63;;
55136;SDS011;41032;47.818;-3.732;2022-12-05T17:05:45;8.20;;;4.93;;
55136;SDS011;41032;47.818;-3.732;2022-12-05T17:08:13;9.80;;;5.53;;
55136;SDS011;41032;47.818;-3.732;2022-12-05T17:10:42;8.15;;;5.03;;
55136;SDS011;41032;47.818;-3.732;2022-12-05T17:15:46;6.10;;;4.43;;
55136;SDS011;41032;47.818;-3.732;2022-12-05T17:18:15;6.97;;;4.53;;
55136;SDS011;41032;47.818;-3.732;2022-12-05T17:20:46;10.07;;;4.40;;
55136;SDS011;41032;47.818;-3.732;2022-12-05T17:23:19;8.05;;;4.90;;
55136;SDS011;41032;47.818;-3.732;2022-12-05T17:25:48;5.68;;;4.07;;
55136;SDS011;41032;47.818;-3.732;2022-12-05T17:28:19;6.97;;;5.40;;
55136;SDS011;41032;47.818;-3.732;2022-12-05T17:30:48;7.18;;;4.65;;
55136;SDS011;41032;47.818;-3.732;2022-12-05T17:33:18;5.97;;;4.30;;
55136;SDS011;41032;47.818;-3.732;2022-12-05T17:35:46;8.18;;;4.60;;
55136;SDS011;41032;47.818;-3.732;2022-12-05T17:38:15;8.10;;;4.70;;